Time,TemperatureF,DewpointF,PressureIn,WindDirection,WindDirectionDegrees,WindSpeedMPH,WindSpeedGustMPH,Humidity,HourlyPrecipIn,Conditions,Clouds,dailyrainin,SoftwareType,DateUTC
2013-06-22 00:09:00,67.1,59.0,30.09,West,264,0.0,0.0,76,0.00,,,0.00,weatherlink.com 1.10,2013-06-22 04:09:00,
2013-06-22 00:24:00,66.6,59.0,30.08,North,9,1.0,1.0,77,0.00,,,0.00,weatherlink.com 1.10,2013-06-22 04:24:00,
2013-06-22 00:39:00,66.4,59.0,30.08,North,9,0.0,0.0,78,0.00,,,0.00,weatherlink.com 1.10,2013-06-22 04:39:00,
2013-06-22 00:54:00,66.2,60.0,30.08,North,9,0.0,0.0,79,0.00,,,0.00,weatherlink.com 1.10,2013-06-22 04:54:00,
2013-06-22 01:09:00,66.1,59.0,30.08,North,9,0.0,0.0,79,0.00,,,0.00,weatherlink.com 1.10,2013-06-22 05:09:00,
2013-06-22 01:24:00,66.1,59.0,30.07,North,9,0.0,0.0,79,0.00,,,0.00,weatherlink.com 1.10,2013-06-22 05:24:00,
2013-06-22 01:39:00,66.0,59.0,30.07,North,9,0.0,0.0,78,0.00,,,0.00,weatherlink.com 1.10,2013-06-22 05:39:00,
2013-06-22 01:54:00,65.9,59.0,30.07,North,9,0.0,1.0,78,0.00,,,0.00,weatherlink.com 1.10,2013-06-22 05:54:00,
2013-06-22 02:09:00,65.9,59.0,30.07,North,9,0.0,0.0,77,0.00,,,0.00,weatherlink.com 1.10,2013-06-22 06:09:00,
2013-06-22 02:24:00,66.0,59.0,30.06,WNW,288,0.0,1.0,77,0.00,,,0.00,weatherlink.com 1.10,2013-06-22 06:24:00,
2013-06-22 02:39:00,66.3,59.0,30.06,WNW,288,0.0,0.0,78,0.00,,,0.00,weatherlink.com 1.10,2013-06-22 06:39:00,
2013-06-22 02:54:00,66.6,60.0,30.06,WNW,288,0.0,0.0,78,0.00,,,0.00,weatherlink.com 1.10,2013-06-22 06:54:00,
2013-06-22 03:09:00,67.1,60.0,30.05,WSW,250,0.0,2.0,77,0.00,,,0.00,weatherlink.com 1.10,2013-06-22 07:09:00,
2013-06-22 03:24:00,67.6,60.0,30.04,WSW,250,0.0,2.0,76,0.00,,,0.00,weatherlink.com 1.10,2013-06-22 07:24:00,
2013-06-22 03:39:00,68.2,60.0,30.04,SW,227,0.0,3.0,75,0.00,,,0.00,weatherlink.com 1.10,2013-06-22 07:39:00,
2013-06-22 03:54:00,68.7,61.0,30.03,West,260,1.0,2.0,75,0.00,,,0.00,weatherlink.com 1.10,2013-06-22 07:54:00,
2013-06-22 04:09:00,69.0,61.0,30.03,WSW,251,0.0,2.0,75,0.00,,,0.00,weatherlink.com 1.10,2013-06-22 08:09:00,
2013-06-22 04:24:00,69.3,61.0,30.02,SW,217,0.0,3.0,74,0.00,,,0.00,weatherlink.com 1.10,2013-06-22 08:24:00,
2013-06-22 04:39:00,69.4,61.0,30.02,West,263,1.0,2.0,74,0.00,,,0.00,weatherlink.com 1.10,2013-06-22 08:39:00,
2013-06-22 04:54:00,69.5,61.0,30.01,West,265,0.0,1.0,74,0.00,,,0.00,weatherlink.com 1.10,2013-06-22 08:54:00,
2013-06-22 05:09:00,69.3,61.0,30.01,SW,236,0.0,3.0,75,0.00,,,0.00,weatherlink.com 1.10,2013-06-22 09:09:00,
2013-06-22 05:24:00,69.0,61.0,30.02,North,5,0.0,0.0,76,0.00,,,0.00,weatherlink.com 1.10,2013-06-22 09:24:00,
2013-06-22 05:40:00,68.6,61.0,30.02,North,5,0.0,0.0,77,0.00,,,0.00,weatherlink.com 1.10,2013-06-22 09:40:00,
2013-06-22 05:54:00,68.2,61.0,30.03,North,5,0.0,0.0,78,0.00,,,0.00,weatherlink.com 1.10,2013-06-22 09:54:00,
2013-06-22 06:09:00,67.8,61.0,30.03,North,5,0.0,0.0,80,0.00,,,0.00,weatherlink.com 1.10,2013-06-22 10:09:00,
2013-06-22 06:24:00,67.5,61.0,30.03,North,5,0.0,0.0,80,0.00,,,0.00,weatherlink.com 1.10,2013-06-22 10:24:00,
2013-06-22 06:39:00,67.3,62.0,30.03,North,5,0.0,0.0,82,0.00,,,0.00,weatherlink.com 1.10,2013-06-22 10:39:00,
2013-06-22 06:54:00,67.3,62.0,30.02,NNW,333,0.0,1.0,83,0.00,,,0.00,weatherlink.com 1.10,2013-06-22 10:54:00,
2013-06-22 07:09:00,67.6,63.0,30.04,SW,231,0.0,2.0,84,0.00,,,0.00,weatherlink.com 1.10,2013-06-22 11:09:00,
2013-06-22 07:24:00,68.7,64.0,30.04,WSW,244,0.0,2.0,84,0.00,,,0.00,weatherlink.com 1.10,2013-06-22 11:24:00,
2013-06-22 07:39:00,70.5,64.0,30.04,WSW,249,0.0,3.0,80,0.00,,,0.00,weatherlink.com 1.10,2013-06-22 11:39:00,
2013-06-22 07:54:00,71.4,65.0,30.04,West,272,1.0,3.0,80,0.00,,,0.00,weatherlink.com 1.10,2013-06-22 11:54:00,
2013-06-22 08:10:00,72.5,65.0,30.04,SSW,199,1.0,4.0,77,0.00,,,0.00,weatherlink.com 1.10,2013-06-22 12:10:00,
2013-06-22 08:25:00,73.5,66.0,30.04,SW,225,1.0,4.0,76,0.00,,,0.00,weatherlink.com 1.10,2013-06-22 12:25:00,
2013-06-22 08:40:00,74.2,67.0,30.05,South,188,0.0,5.0,77,0.00,,,0.00,weatherlink.com 1.10,2013-06-22 12:40:00,
2013-06-22 08:55:00,74.5,67.0,30.05,SW,215,1.0,4.0,76,0.00,,,0.00,weatherlink.com 1.10,2013-06-22 12:55:00,
2013-06-22 09:10:00,76.3,68.0,30.05,SSW,195,3.0,4.0,76,0.00,,,0.00,weatherlink.com 1.10,2013-06-22 13:10:00,
2013-06-22 09:25:00,77.6,69.0,30.05,West,262,1.0,3.0,74,0.00,,,0.00,weatherlink.com 1.10,2013-06-22 13:25:00,
2013-06-22 09:40:00,77.5,69.0,30.06,WSW,258,2.0,3.0,75,0.00,,,0.00,weatherlink.com 1.10,2013-06-22 13:40:00,
2013-06-22 09:55:00,77.6,70.0,30.06,West,263,1.0,5.0,76,0.00,,,0.00,weatherlink.com 1.10,2013-06-22 13:55:00,
2013-06-22 10:11:00,77.9,70.0,30.06,WSW,243,1.0,3.0,76,0.00,,,0.00,weatherlink.com 1.10,2013-06-22 14:11:00,
2013-06-22 10:25:00,79.2,71.0,30.06,SW,217,1.0,5.0,75,0.00,,,0.00,weatherlink.com 1.10,2013-06-22 14:25:00,
2013-06-22 10:40:00,80.0,71.0,30.06,North,5,2.0,5.0,75,0.00,,,0.00,weatherlink.com 1.10,2013-06-22 14:40:00,
2013-06-22 10:55:00,80.0,71.0,30.06,SE,138,3.0,7.0,73,0.00,,,0.00,weatherlink.com 1.10,2013-06-22 14:55:00,
2013-06-22 11:10:00,81.0,72.0,30.06,NE,38,1.0,5.0,74,0.00,,,0.00,weatherlink.com 1.10,2013-06-22 15:10:00,
2013-06-22 11:25:00,81.7,71.0,30.05,WSW,239,1.0,5.0,70,0.00,,,0.00,weatherlink.com 1.10,2013-06-22 15:25:00,
2013-06-22 11:40:00,82.5,71.0,30.05,WSW,255,1.0,5.0,69,0.00,,,0.00,weatherlink.com 1.10,2013-06-22 15:40:00,
2013-06-22 11:55:00,82.9,72.0,30.06,SSW,211,3.0,6.0,70,0.00,,,0.00,weatherlink.com 1.10,2013-06-22 15:55:00,
2013-06-22 12:10:00,84.8,73.0,30.06,NE,38,1.0,4.0,67,0.00,,,0.00,weatherlink.com 1.10,2013-06-22 16:10:00,
2013-06-22 12:25:00,84.2,72.0,30.06,WSW,243,1.0,7.0,66,0.00,,,0.00,weatherlink.com 1.10,2013-06-22 16:25:00,
2013-06-22 12:40:00,83.4,71.0,30.06,SW,225,1.0,5.0,67,0.00,,,0.00,weatherlink.com 1.10,2013-06-22 16:40:00,
2013-06-22 12:55:00,82.5,72.0,30.06,ESE,121,1.0,6.0,71,0.00,,,0.00,weatherlink.com 1.10,2013-06-22 16:55:00,
2013-06-22 13:10:00,82.3,72.0,30.05,SW,232,0.0,4.0,72,0.00,,,0.00,weatherlink.com 1.10,2013-06-22 17:10:00,
2013-06-22 13:25:00,81.8,71.0,30.05,SSW,208,1.0,2.0,70,0.00,,,0.00,weatherlink.com 1.10,2013-06-22 17:25:00,
2013-06-22 13:40:00,82.0,72.0,30.05,NNE,26,3.0,4.0,72,0.00,,,0.00,weatherlink.com 1.10,2013-06-22 17:40:00,
2013-06-22 13:55:00,81.9,72.0,30.05,SW,236,3.0,3.0,72,0.00,,,0.00,weatherlink.com 1.10,2013-06-22 17:55:00,
2013-06-22 14:10:00,81.9,72.0,30.05,SSW,209,1.0,3.0,71,0.00,,,0.00,weatherlink.com 1.10,2013-06-22 18:10:00,
2013-06-22 14:25:00,82.9,73.0,30.05,SSW,204,3.0,5.0,72,0.00,,,0.00,weatherlink.com 1.10,2013-06-22 18:25:00,
2013-06-22 14:40:00,83.3,73.0,30.05,North,360,1.0,5.0,70,0.00,,,0.00,weatherlink.com 1.10,2013-06-22 18:40:00,
2013-06-22 14:55:00,84.8,73.0,30.03,North,360,5.0,5.0,67,0.00,,,0.00,weatherlink.com 1.10,2013-06-22 18:55:00,
2013-06-22 15:10:00,86.4,73.0,30.04,WSW,246,0.0,5.0,65,0.00,,,0.00,weatherlink.com 1.10,2013-06-22 19:10:00,
2013-06-22 15:25:00,87.4,73.0,30.02,WNW,296,0.0,5.0,62,0.00,,,0.00,weatherlink.com 1.10,2013-06-22 19:25:00,
2013-06-22 15:40:00,85.0,73.0,30.02,WSW,246,1.0,5.0,67,0.00,,,0.00,weatherlink.com 1.10,2013-06-22 19:40:00,
2013-06-22 15:55:00,86.3,72.0,30.01,North,351,2.0,4.0,63,0.00,,,0.00,weatherlink.com 1.10,2013-06-22 19:55:00,
2013-06-22 16:10:00,85.3,72.0,30.00,North,355,2.0,5.0,64,0.00,,,0.00,weatherlink.com 1.10,2013-06-22 20:10:00,
2013-06-22 16:26:00,85.3,71.0,29.98,West,274,3.0,3.0,63,0.00,,,0.00,weatherlink.com 1.10,2013-06-22 20:26:00,
2013-06-22 16:41:00,85.9,71.0,29.98,North,349,3.0,4.0,62,0.00,,,0.00,weatherlink.com 1.10,2013-06-22 20:41:00,
2013-06-22 16:56:00,84.2,71.0,29.97,South,180,0.0,2.0,64,0.00,,,0.00,weatherlink.com 1.10,2013-06-22 20:56:00,
2013-06-22 17:11:00,83.2,73.0,29.98,South,180,0.0,1.0,71,0.00,,,0.00,weatherlink.com 1.10,2013-06-22 21:11:00,
2013-06-22 17:26:00,82.3,74.0,29.98,South,169,1.0,1.0,76,0.00,,,0.00,weatherlink.com 1.10,2013-06-22 21:26:00,
2013-06-22 17:41:00,82.1,74.0,30.00,South,169,1.0,2.0,75,0.00,,,0.00,weatherlink.com 1.10,2013-06-22 21:41:00,
2013-06-22 17:56:00,81.5,72.0,30.00,SSE,147,4.0,9.0,72,0.00,,,0.00,weatherlink.com 1.10,2013-06-22 21:56:00,
2013-06-22 18:11:00,80.2,71.0,30.00,NE,49,0.0,5.0,74,0.00,,,0.00,weatherlink.com 1.10,2013-06-22 22:11:00,
2013-06-22 18:26:00,79.3,71.0,30.00,ESE,119,3.0,5.0,75,0.00,,,0.00,weatherlink.com 1.10,2013-06-22 22:26:00,
2013-06-22 18:41:00,78.4,71.0,29.99,SSE,155,1.0,4.0,77,0.00,,,0.00,weatherlink.com 1.10,2013-06-22 22:41:00,
2013-06-22 18:56:00,77.8,70.0,29.99,East,98,1.0,4.0,78,0.00,,,0.00,weatherlink.com 1.10,2013-06-22 22:56:00,
2013-06-22 19:11:00,77.3,70.0,29.98,SSW,213,1.0,4.0,78,0.00,,,0.00,weatherlink.com 1.10,2013-06-22 23:11:00,
2013-06-22 19:26:00,76.9,70.0,29.99,WSW,238,0.0,2.0,79,0.00,,,0.00,weatherlink.com 1.10,2013-06-22 23:26:00,
2013-06-22 19:41:00,76.6,70.0,29.99,WSW,244,0.0,2.0,80,0.00,,,0.00,weatherlink.com 1.10,2013-06-22 23:41:00,
2013-06-22 19:56:00,76.5,70.0,29.98,SW,230,1.0,3.0,81,0.00,,,0.00,weatherlink.com 1.10,2013-06-22 23:56:00,
2013-06-22 20:11:00,76.4,70.0,29.99,SW,228,1.0,2.0,81,0.00,,,0.00,weatherlink.com 1.10,2013-06-23 00:11:00,
2013-06-22 20:26:00,76.4,71.0,29.99,SW,228,1.0,2.0,82,0.00,,,0.00,weatherlink.com 1.10,2013-06-23 00:26:00,
2013-06-22 20:41:00,76.2,70.0,29.99,SW,229,0.0,1.0,82,0.00,,,0.00,weatherlink.com 1.10,2013-06-23 00:41:00,
2013-06-22 20:56:00,76.0,70.0,29.99,SW,227,1.0,2.0,81,0.00,,,0.00,weatherlink.com 1.10,2013-06-23 00:56:00,
2013-06-22 21:11:00,75.5,69.0,30.00,WSW,247,0.0,2.0,81,0.00,,,0.00,weatherlink.com 1.10,2013-06-23 01:11:00,
2013-06-22 21:26:00,75.0,69.0,30.00,SW,221,0.0,3.0,81,0.00,,,0.00,weatherlink.com 1.10,2013-06-23 01:26:00,
2013-06-22 21:41:00,74.5,69.0,30.00,NW,309,1.0,2.0,82,0.00,,,0.00,weatherlink.com 1.10,2013-06-23 01:41:00,
2013-06-22 21:56:00,74.0,69.0,30.02,NW,309,1.0,2.0,83,0.00,,,0.00,weatherlink.com 1.10,2013-06-23 01:56:00,
2013-06-22 22:11:00,73.6,68.0,30.03,NW,309,0.0,0.0,83,0.00,,,0.00,weatherlink.com 1.10,2013-06-23 02:11:00,
2013-06-22 22:26:00,73.1,68.0,30.04,NW,309,0.0,0.0,84,0.00,,,0.00,weatherlink.com 1.10,2013-06-23 02:26:00,
2013-06-22 22:42:00,72.8,68.0,30.04,NW,309,0.0,0.0,85,0.00,,,0.00,weatherlink.com 1.10,2013-06-23 02:42:00,
2013-06-22 22:56:00,72.6,68.0,30.04,NW,309,0.0,-999.0,86,-99.99,,,0.00,weatherlink.com 1.10,2013-06-23 02:56:00,
2013-06-22 23:11:00,72.5,68.0,30.03,NW,309,0.0,0.0,86,0.00,,,0.00,weatherlink.com 1.10,2013-06-23 03:11:00,
2013-06-22 23:26:00,72.3,68.0,30.03,NW,309,0.0,0.0,86,0.00,,,0.00,weatherlink.com 1.10,2013-06-23 03:26:00,
2013-06-22 23:41:00,72.1,68.0,30.02,NW,309,0.0,0.0,86,0.00,,,0.00,weatherlink.com 1.10,2013-06-23 03:41:00,
2013-06-22 23:56:00,71.8,68.0,30.02,NW,309,0.0,0.0,86,0.00,,,0.00,weatherlink.com 1.10,2013-06-23 03:56:00,